Time;durP1;ratioP1;P1;durP2;ratioP2;P2;SDS_P1;SDS_P2;PMS_P1;PMS_P2;Temp;Humidity;BMP_temperature;BMP_pressure;BME280_temperature;BME280_humidity;BME280_pressure;Samples;Min_cycle;Max_cycle;Signal;HPM_P1;HPM_P2
2021/03/07 00:02:19;;;;;;;0.00;0.00;;;-0.20;99.90;;;;;;6184591;23;20448;-69
2021/03/07 00:04:45;;;;;;;0.00;0.00;;;-0.20;99.90;;;;;;6184308;23;20373;-69
2021/03/07 00:07:12;;;;;;;0.00;0.00;;;-0.20;99.90;;;;;;6184776;23;20748;-70
2021/03/07 00:09:38;;;;;;;0.00;0.00;;;-0.20;99.90;;;;;;6184093;23;20483;-70
2021/03/07 00:12:05;;;;;;;0.00;0.00;;;-0.30;99.90;;;;;;6184319;23;20385;-70
2021/03/07 00:14:31;;;;;;;0.00;0.00;;;-0.30;99.90;;;;;;6184562;23;20373;-70
2021/03/07 00:16:57;;;;;;;0.00;0.00;;;-0.40;99.90;;;;;;6184128;23;20378;-70
2021/03/07 00:19:23;;;;;;;0.00;0.00;;;-0.50;99.90;;;;;;6184461;23;20381;-70
2021/03/07 00:21:49;;;;;;;0.00;0.00;;;-0.50;99.90;;;;;;6183549;23;20431;-70
2021/03/07 00:24:16;;;;;;;0.00;0.00;;;-0.50;99.90;;;;;;6184390;23;20871;-70
2021/03/07 00:26:42;;;;;;;0.00;0.00;;;-0.50;99.90;;;;;;6184714;23;20925;-71
2021/03/07 00:29:09;;;;;;;0.00;0.00;;;-0.50;99.90;;;;;;6184530;23;20389;-70
2021/03/07 00:31:35;;;;;;;0.00;0.00;;;-0.60;99.90;;;;;;6183632;23;20880;-70
2021/03/07 00:34:01;;;;;;;0.00;0.00;;;-0.50;99.90;;;;;;6184094;23;20384;-70
2021/03/07 00:36:27;;;;;;;0.00;0.00;;;-0.50;99.90;;;;;;6184798;23;20444;-70
2021/03/07 00:38:53;;;;;;;0.00;0.00;;;-0.50;99.90;;;;;;6183665;23;20380;-70
2021/03/07 00:41:20;;;;;;;0.00;0.00;;;-0.50;99.90;;;;;;6183800;23;20365;-70
2021/03/07 00:43:46;;;;;;;0.00;0.00;;;-0.60;99.90;;;;;;6184164;23;20431;-70
2021/03/07 00:46:12;;;;;;;0.00;0.00;;;-0.60;99.90;;;;;;6184131;23;20377;-69
2021/03/07 00:48:39;;;;;;;0.00;0.00;;;-0.50;99.90;;;;;;6184202;23;20376;-70
2021/03/07 00:51:05;;;;;;;0.00;0.00;;;-0.50;99.90;;;;;;6183166;23;20950;-70
2021/03/07 00:53:31;;;;;;;0.00;0.00;;;-0.50;99.90;;;;;;6184330;23;20385;-70
2021/03/07 00:55:57;;;;;;;0.00;0.00;;;-0.50;99.90;;;;;;6184068;23;20373;-70
2021/03/07 00:58:24;;;;;;;0.00;0.00;;;-0.50;99.90;;;;;;6184203;23;20747;-70
2021/03/07 01:00:51;;;;;;;0.00;0.00;;;-0.60;99.90;;;;;;6183755;23;20374;-71
2021/03/07 01:03:17;;;;;;;0.00;0.00;;;-0.70;99.90;;;;;;6183875;23;20386;-71
2021/03/07 01:05:43;;;;;;;0.00;0.00;;;-0.70;99.90;;;;;;6184107;23;20378;-70
2021/03/07 01:08:09;;;;;;;0.00;0.00;;;-0.70;99.90;;;;;;6183778;23;20385;-71
2021/03/07 01:10:38;;;;;;;0.00;0.00;;;-0.70;99.90;;;;;;6183712;23;20392;-70
2021/03/07 01:13:05;;;;;;;0.00;0.00;;;-0.70;99.90;;;;;;6183749;23;20381;-70
2021/03/07 01:15:33;;;;;;;0.00;0.00;;;-0.70;99.90;;;;;;6183552;23;20409;-70
2021/03/07 01:18:00;;;;;;;0.00;0.00;;;-0.70;99.90;;;;;;6183811;23;20388;-70
2021/03/07 01:20:27;;;;;;;0.00;0.00;;;-0.70;99.90;;;;;;6183677;23;20424;-70
2021/03/07 01:22:53;;;;;;;0.00;0.00;;;-0.80;99.90;;;;;;6183389;23;20380;-70
2021/03/07 01:25:21;;;;;;;0.00;0.00;;;-0.80;99.90;;;;;;6183210;23;20844;-70
2021/03/07 01:27:48;;;;;;;0.00;0.00;;;-0.80;99.90;;;;;;6183892;23;20384;-69
2021/03/07 01:30:15;;;;;;;0.00;0.00;;;-0.90;99.90;;;;;;6183682;23;20389;-70
2021/03/07 01:32:43;;;;;;;0.00;0.00;;;-0.90;99.90;;;;;;6183444;23;20377;-71
2021/03/07 01:35:10;;;;;;;0.00;0.00;;;-0.90;99.90;;;;;;6184048;23;20380;-71
2021/03/07 01:37:36;;;;;;;0.00;0.00;;;-0.90;99.90;;;;;;6183589;23;20377;-69
2021/03/07 01:40:06;;;;;;;0.00;0.00;;;-0.90;99.90;;;;;;6183772;23;20369;-70
2021/03/07 01:42:32;;;;;;;0.00;0.00;;;-1.00;99.90;;;;;;6183237;23;20377;-70
2021/03/07 01:44:59;;;;;;;0.00;0.00;;;-1.10;99.90;;;;;;6183723;23;20784;-71
2021/03/07 01:47:31;;;;;;;0.00;0.00;;;-1.10;99.90;;;;;;6183695;23;20397;-71
2021/03/07 01:49:58;;;;;;;0.00;0.00;;;-1.10;99.90;;;;;;6183312;23;20385;-71
2021/03/07 01:52:25;;;;;;;0.00;0.00;;;-1.10;99.90;;;;;;6183427;23;20384;-71
2021/03/07 01:54:51;;;;;;;0.00;0.00;;;-1.10;99.90;;;;;;6183361;23;20373;-70
2021/03/07 01:57:20;;;;;;;0.00;0.00;;;-1.10;99.90;;;;;;6183807;23;20712;-69
2021/03/07 01:59:47;;;;;;;0.00;0.00;;;-1.20;99.90;;;;;;6183507;23;20447;-70
2021/03/07 02:02:14;;;;;;;0.00;0.00;;;-1.20;99.90;;;;;;6183072;23;20384;-70
2021/03/07 02:04:40;;;;;;;0.00;0.00;;;-1.20;99.90;;;;;;6183889;23;20370;-69
2021/03/07 02:07:07;;;;;;;0.00;0.00;;;-1.20;99.90;;;;;;6183540;23;20377;-70
2021/03/07 02:09:33;;;;;;;0.00;0.00;;;-1.20;99.90;;;;;;6183407;23;20373;-71
2021/03/07 02:11:59;;;;;;;0.00;0.00;;;-1.20;99.90;;;;;;6182786;23;20678;-70
2021/03/07 02:14:29;;;;;;;0.00;0.00;;;-1.30;99.90;;;;;;6183421;23;20967;-71
2021/03/07 02:16:56;;;;;;;0.00;0.00;;;-1.30;99.90;;;;;;6183224;23;20381;-71
2021/03/07 02:19:29;;;;;;;0.00;0.00;;;-1.30;99.90;;;;;;6183050;23;20864;-70
2021/03/07 02:21:59;;;;;;;0.00;0.00;;;-1.30;99.90;;;;;;6183117;23;20385;-70
2021/03/07 02:24:26;;;;;;;0.00;0.00;;;-1.30;99.90;;;;;;6182481;23;20392;-70
2021/03/07 02:26:53;;;;;;;0.00;0.00;;;-1.30;99.90;;;;;;6183595;23;20401;-70
2021/03/07 02:29:22;;;;;;;0.00;0.00;;;-1.30;99.90;;;;;;6183157;23;20393;-70
2021/03/07 02:31:53;;;;;;;0.00;0.00;;;-1.30;99.90;;;;;;6182731;23;20424;-70
2021/03/07 02:34:27;;;;;;;0.00;0.00;;;-1.30;99.90;;;;;;6183201;23;20400;-69
2021/03/07 02:36:56;;;;;;;0.00;0.00;;;-1.30;99.90;;;;;;6182988;23;20377;-69
2021/03/07 02:39:28;;;;;;;0.00;0.00;;;-1.20;99.90;;;;;;6183130;23;20701;-70
2021/03/07 02:41:59;;;;;;;0.00;0.00;;;-1.20;99.90;;;;;;6182896;23;20444;-70
2021/03/07 02:44:29;;;;;;;0.00;0.00;;;-1.10;99.90;;;;;;6183572;23;20377;-69
2021/03/07 02:46:56;;;;;;;0.00;0.00;;;-1.10;99.90;;;;;;6183263;23;20373;-69
2021/03/07 02:49:25;;;;;;;0.00;0.00;;;-1.10;99.90;;;;;;6183011;23;20383;-69
2021/03/07 02:51:53;;;;;;;0.00;0.00;;;-1.10;99.90;;;;;;6182713;23;20412;-70
2021/03/07 02:54:21;;;;;;;0.00;0.00;;;-1.10;99.90;;;;;;6182978;23;20716;-69
2021/03/07 02:56:51;;;;;;;0.00;0.00;;;-1.10;99.90;;;;;;6183254;23;20384;-70
2021/03/07 02:59:20;;;;;;;0.00;0.00;;;-1.20;99.90;;;;;;6182809;23;20377;-70
2021/03/07 03:01:52;;;;;;;0.00;0.00;;;-1.20;99.90;;;;;;6182715;23;20405;-70
2021/03/07 03:04:18;;;;;;;0.00;0.00;;;-1.30;99.90;;;;;;6183067;23;20381;-69
2021/03/07 03:06:45;;;;;;;0.00;0.00;;;-1.20;99.90;;;;;;6182869;23;20642;-70
2021/03/07 03:09:12;;;;;;;0.00;0.00;;;-1.30;99.90;;;;;;6183214;23;20431;-69
2021/03/07 03:11:41;;;;;;;0.00;0.00;;;-1.20;99.90;;;;;;6181945;23;20932;-70
2021/03/07 03:14:09;;;;;;;0.00;0.00;;;-1.20;99.90;;;;;;6183030;23;20392;-69
2021/03/07 03:16:36;;;;;;;0.00;0.00;;;-1.20;99.90;;;;;;6182448;23;20791;-70
2021/03/07 03:19:08;;;;;;;0.00;0.00;;;-1.30;99.90;;;;;;6182953;23;20368;-70
2021/03/07 03:21:34;;;;;;;0.00;0.00;;;-1.30;99.90;;;;;;6182710;23;20377;-69
2021/03/07 03:24:01;;;;;;;0.00;0.00;;;-1.30;99.90;;;;;;6182829;23;20381;-70
2021/03/07 03:26:28;;;;;;;0.00;0.00;;;-1.40;99.90;;;;;;6183116;23;20893;-70
2021/03/07 03:28:54;;;;;;;0.00;0.00;;;-1.40;99.90;;;;;;6182384;23;20404;-69
2021/03/07 03:31:22;;;;;;;0.00;0.00;;;-1.30;99.90;;;;;;6182440;23;20883;-70
2021/03/07 03:33:48;;;;;;;0.00;0.00;;;-1.40;99.90;;;;;;6182293;23;20424;-70
2021/03/07 03:36:14;;;;;;;0.00;0.00;;;-1.30;99.90;;;;;;6184489;23;20436;-70
2021/03/07 03:38:45;;;;;;;0.00;0.00;;;-1.30;99.90;;;;;;6184874;23;20373;-69
2021/03/07 03:41:13;;;;;;;0.00;0.00;;;-1.30;99.90;;;;;;6184321;23;20381;-70
2021/03/07 03:43:41;;;;;;;0.00;0.00;;;-1.30;99.90;;;;;;6185003;23;20377;-71
2021/03/07 03:46:10;;;;;;;0.00;0.00;;;-1.40;99.90;;;;;;6184994;23;20385;-70
2021/03/07 03:48:40;;;;;;;0.00;0.00;;;-1.40;99.90;;;;;;6184952;23;20415;-69
2021/03/07 03:51:09;;;;;;;0.00;0.00;;;-1.40;99.90;;;;;;6184537;23;20489;-70
2021/03/07 03:53:37;;;;;;;0.00;0.00;;;-1.40;99.90;;;;;;6184483;23;20381;-70
2021/03/07 03:56:04;;;;;;;0.00;0.00;;;-1.40;99.90;;;;;;6185119;23;20420;-70
2021/03/07 03:58:37;;;;;;;0.00;0.00;;;-1.40;99.90;;;;;;6184590;23;20424;-70
2021/03/07 04:01:05;;;;;;;0.00;0.00;;;-1.40;99.90;;;;;;6184462;23;20401;-70
2021/03/07 04:03:31;;;;;;;0.00;0.00;;;-1.40;99.90;;;;;;6184364;23;20384;-69
2021/03/07 04:05:58;;;;;;;0.00;0.00;;;-1.40;99.90;;;;;;6184473;23;20966;-70
2021/03/07 04:08:25;;;;;;;0.00;0.00;;;-1.50;99.90;;;;;;6184486;23;20381;-69
2021/03/07 04:10:52;;;;;;;0.00;0.00;;;-1.50;99.90;;;;;;6183854;23;20397;-70
2021/03/07 04:13:20;;;;;;;0.00;0.00;;;-1.60;99.90;;;;;;6184336;23;20797;-69
2021/03/07 04:15:46;;;;;;;0.00;0.00;;;-1.60;99.90;;;;;;6183833;23;20870;-70
2021/03/07 04:18:15;;;;;;;0.00;0.00;;;-1.60;99.90;;;;;;6185209;23;20373;-70
2021/03/07 04:20:42;;;;;;;0.00;0.00;;;-1.60;99.90;;;;;;6185248;23;20373;-69
2021/03/07 04:23:09;;;;;;;0.00;0.00;;;-1.60;99.90;;;;;;6183917;23;20373;-71
2021/03/07 04:25:36;;;;;;;0.00;0.00;;;-1.60;99.90;;;;;;6184293;23;20451;-70
2021/03/07 04:28:04;;;;;;;0.00;0.00;;;-1.60;99.90;;;;;;6183735;23;20382;-71
2021/03/07 04:30:31;;;;;;;0.00;0.00;;;-1.60;99.90;;;;;;6184331;23;20397;-70
2021/03/07 04:32:58;;;;;;;0.00;0.00;;;-1.60;99.90;;;;;;6184279;23;20377;-70
2021/03/07 04:35:24;;;;;;;0.00;0.00;;;-1.60;99.90;;;;;;6184459;23;20373;-70
2021/03/07 04:37:51;;;;;;;0.00;0.00;;;-1.60;99.90;;;;;;6183677;23;20377;-69
2021/03/07 04:40:18;;;;;;;0.00;0.00;;;-1.60;99.90;;;;;;6184372;23;20723;-69
2021/03/07 04:42:44;;;;;;;0.00;0.00;;;-1.60;99.90;;;;;;6184135;23;20389;-69
2021/03/07 04:45:14;;;;;;;0.00;0.00;;;-1.60;99.90;;;;;;6184104;23;20384;-69
2021/03/07 04:47:41;;;;;;;0.00;0.00;;;-1.60;99.90;;;;;;6183810;23;20381;-68
2021/03/07 04:50:08;;;;;;;0.00;0.00;;;-1.60;99.90;;;;;;6183920;23;20448;-70
2021/03/07 04:52:35;;;;;;;0.00;0.00;;;-1.60;99.90;;;;;;6184092;23;20373;-68
2021/03/07 04:55:01;;;;;;;0.00;0.00;;;-1.60;99.90;;;;;;6184210;23;20682;-69
2021/03/07 04:57:28;;;;;;;0.00;0.00;;;-1.60;99.90;;;;;;6184175;23;20369;-69
2021/03/07 04:59:54;;;;;;;0.00;0.00;;;-1.60;99.90;;;;;;6184328;23;20381;-69
2021/03/07 05:02:20;;;;;;;0.00;0.00;;;-1.50;99.90;;;;;;6183875;23;20380;-69
2021/03/07 05:04:46;;;;;;;0.00;0.00;;;-1.50;99.90;;;;;;6184158;23;20377;-69
2021/03/07 05:07:13;;;;;;;0.00;0.00;;;-1.60;99.90;;;;;;6183558;23;20856;-68
2021/03/07 05:09:39;;;;;;;0.00;0.00;;;-1.60;99.90;;;;;;6184226;23;20440;-69
2021/03/07 05:12:06;;;;;;;0.00;0.00;;;-1.60;99.90;;;;;;6183503;23;20393;-70
2021/03/07 05:14:33;;;;;;;0.00;0.00;;;-1.60;99.90;;;;;;6183489;23;20373;-70
2021/03/07 05:16:59;;;;;;;0.00;0.00;;;-1.60;99.90;;;;;;6183624;23;20384;-70
2021/03/07 05:19:26;;;;;;;0.00;0.00;;;-1.60;99.90;;;;;;6183335;23;20400;-70
2021/03/07 05:21:52;;;;;;;0.00;0.00;;;-1.60;99.90;;;;;;6183680;23;20373;-70
2021/03/07 05:24:18;;;;;;;0.00;0.00;;;-1.60;99.90;;;;;;6183733;23;20377;-70
2021/03/07 05:26:44;;;;;;;0.00;0.00;;;-1.70;99.90;;;;;;6183990;23;20412;-71
2021/03/07 05:29:11;;;;;;;0.00;0.00;;;-1.60;99.90;;;;;;6183934;23;20397;-69
2021/03/07 05:31:38;;;;;;;0.00;0.00;;;-1.60;99.90;;;;;;6182661;23;20945;-70
2021/03/07 05:34:04;;;;;;;0.00;0.00;;;-1.70;99.90;;;;;;6183867;23;20384;-70
2021/03/07 05:36:30;;;;;;;0.00;0.00;;;-1.70;99.90;;;;;;6183692;23;20373;-70
2021/03/07 05:38:56;;;;;;;0.00;0.00;;;-1.70;99.90;;;;;;6183766;23;20381;-71
2021/03/07 05:41:22;;;;;;;0.00;0.00;;;-1.70;99.90;;;;;;6183301;23;20369;-70
2021/03/07 05:43:48;;;;;;;0.00;0.00;;;-1.70;99.90;;;;;;6183621;23;20377;-70
2021/03/07 05:46:16;;;;;;;0.00;0.00;;;-1.70;99.90;;;;;;6183730;23;20377;-70
2021/03/07 05:48:43;;;;;;;0.00;0.00;;;-1.80;99.90;;;;;;6183272;23;20454;-70
2021/03/07 05:51:12;;;;;;;0.00;0.00;;;-1.80;99.90;;;;;;6183298;23;20390;-69
2021/03/07 05:53:38;;;;;;;0.00;0.00;;;-1.80;99.90;;;;;;6183443;23;20380;-69
2021/03/07 05:56:05;;;;;;;0.00;0.00;;;-1.80;99.90;;;;;;6183800;23;20443;-69
2021/03/07 05:58:33;;;;;;;0.00;0.00;;;-1.80;99.90;;;;;;6183386;23;20710;-69
2021/03/07 06:01:01;;;;;;;0.00;0.00;;;-1.80;99.90;;;;;;6183035;23;20404;-69
2021/03/07 06:03:28;;;;;;;0.00;0.00;;;-1.80;99.90;;;;;;6183869;23;20385;-69
2021/03/07 06:05:55;;;;;;;0.00;0.00;;;-1.90;99.90;;;;;;6182913;23;20382;-69
2021/03/07 06:08:22;;;;;;;0.00;0.00;;;-1.90;99.90;;;;;;6183614;23;20378;-69
2021/03/07 06:10:48;;;;;;;0.00;0.00;;;-1.90;99.90;;;;;;6183040;23;20393;-69
2021/03/07 06:13:14;;;;;;;0.00;0.00;;;-1.90;99.90;;;;;;6183452;23;20385;-69
2021/03/07 06:15:43;;;;;;;0.00;0.00;;;-1.80;99.90;;;;;;6183393;23;20496;-70
2021/03/07 06:18:14;;;;;;;0.00;0.00;;;-1.90;99.90;;;;;;6183006;23;20404;-71
2021/03/07 06:20:40;;;;;;;0.00;0.00;;;-1.90;99.90;;;;;;6183466;23;20384;-70
2021/03/07 06:23:08;;;;;;;0.00;0.00;;;-1.90;99.90;;;;;;6182610;23;20748;-70
2021/03/07 06:25:44;;;;;;;0.00;0.00;;;-1.90;99.90;;;;;;6183460;23;20380;-69
2021/03/07 06:28:22;;;;;;;0.00;0.00;;;-1.80;99.90;;;;;;6183319;23;20385;-70
2021/03/07 06:30:48;;;;;;;0.00;0.00;;;-1.80;99.90;;;;;;6183070;23;20895;-70
2021/03/07 06:33:29;;;;;;;0.00;0.00;;;-1.80;99.90;;;;;;6183045;23;20377;-69
2021/03/07 06:36:17;;;;;;;0.00;0.00;;;-1.80;99.90;;;;;;6183099;23;20405;-70
2021/03/07 06:38:45;;;;;;;0.00;0.00;;;-1.70;99.90;;;;;;6183186;23;20673;-69
2021/03/07 06:41:15;;;;;;;0.00;0.00;;;-1.60;99.90;;;;;;6182405;23;20843;-70
2021/03/07 06:43:41;;;;;;;0.00;0.00;;;-1.50;99.90;;;;;;6182971;23;20899;-70
2021/03/07 06:46:07;;;;;;;0.00;0.00;;;-1.60;99.90;;;;;;6183188;23;20481;-70
2021/03/07 06:48:34;;;;;;;0.00;0.00;;;-1.50;99.90;;;;;;6183502;23;20424;-70
2021/03/07 06:51:00;;;;;;;0.00;0.00;;;-1.40;99.90;;;;;;6182475;23;20385;-69
2021/03/07 06:53:38;;;;;;;0.00;0.00;;;-1.30;99.90;;;;;;6182888;23;21044;-70
2021/03/07 06:56:06;;;;;;;0.00;0.00;;;-1.20;99.90;;;;;;6183425;23;20447;-69
2021/03/07 06:58:32;;;;;;;0.00;0.00;;;-1.20;99.90;;;;;;6182654;23;20388;-69
2021/03/07 07:00:59;;;;;;;0.00;0.00;;;-1.10;99.90;;;;;;6183237;23;20744;-70
2021/03/07 07:03:26;;;;;;;0.00;0.00;;;-1.10;99.90;;;;;;6183041;23;20435;-70
2021/03/07 07:05:54;;;;;;;0.00;0.00;;;-1.00;99.90;;;;;;6183026;23;20377;-70
2021/03/07 07:08:43;;;;;;;0.00;0.00;;;-1.00;99.90;;;;;;6182970;23;20381;-70
2021/03/07 07:11:11;;;;;;;0.00;0.00;;;-0.90;99.90;;;;;;6182458;23;20447;-70
2021/03/07 07:13:43;;;;;;;0.00;0.00;;;-0.80;99.90;;;;;;6183257;23;20400;-69
2021/03/07 07:16:11;;;;;;;0.00;0.00;;;-0.70;99.90;;;;;;6182816;23;20760;-70
2021/03/07 07:18:39;;;;;;;0.00;0.00;;;-0.60;99.90;;;;;;6183198;23;20407;-69
2021/03/07 07:21:07;;;;;;;0.00;0.00;;;-0.50;99.90;;;;;;6183106;23;20400;-71
2021/03/07 07:23:34;;;;;;;0.00;0.00;;;-0.30;99.90;;;;;;6184936;23;20385;-70
2021/03/07 07:26:01;;;;;;;0.00;0.00;;;-0.20;99.90;;;;;;6183887;23;20740;-70
2021/03/07 07:28:28;;;;;;;0.00;0.00;;;-0.10;99.90;;;;;;6182938;23;20374;-70
2021/03/07 07:31:00;;;;;;;0.00;0.00;;;0.00;99.90;;;;;;6183358;23;20882;-70
2021/03/07 07:33:35;;;;;;;0.00;0.00;;;0.10;99.90;;;;;;6183504;23;20381;-69
2021/03/07 07:36:02;;;;;;;0.00;0.00;;;0.30;99.90;;;;;;6183767;23;20378;-70
2021/03/07 07:38:29;;;;;;;0.00;0.00;;;0.30;99.90;;;;;;6183784;23;20378;-69
2021/03/07 07:40:55;;;;;;;0.00;0.00;;;0.40;99.90;;;;;;6184730;23;20373;-69
2021/03/07 07:43:22;;;;;;;0.00;0.00;;;0.50;99.90;;;;;;6184123;23;20377;-69
2021/03/07 07:45:49;;;;;;;0.00;0.00;;;0.60;99.90;;;;;;6183822;23;20377;-69
2021/03/07 07:48:33;;;;;;;0.00;0.00;;;0.70;99.90;;;;;;6184177;23;20377;-69
2021/03/07 07:51:32;;;;;;;0.00;0.00;;;0.90;99.90;;;;;;6185449;23;20393;-69
2021/03/07 07:53:59;;;;;;;0.00;0.00;;;1.10;99.90;;;;;;6184855;23;20428;-69
2021/03/07 07:56:36;;;;;;;0.00;0.00;;;1.20;99.90;;;;;;6182560;23;20377;-69
2021/03/07 07:59:03;;;;;;;0.00;0.00;;;1.30;99.90;;;;;;6183202;23;20385;-68
2021/03/07 08:01:52;;;;;;;0.00;0.00;;;1.40;99.90;;;;;;6183111;23;20409;-69
2021/03/07 08:04:39;;;;;;;0.00;0.00;;;1.50;99.90;;;;;;6184549;23;20847;-68
2021/03/07 08:07:07;;;;;;;0.00;0.00;;;1.70;99.90;;;;;;6183621;23;20472;-68
2021/03/07 08:09:42;;;;;;;0.00;0.00;;;1.80;99.90;;;;;;6182523;23;20459;-68
2021/03/07 08:12:48;;;;;;;0.00;0.00;;;2.00;99.90;;;;;;6182164;23;20725;-68
2021/03/07 08:15:40;;;;;;;0.00;0.00;;;2.00;99.90;;;;;;6182958;23;20427;-68
2021/03/07 08:18:06;;;;;;;0.00;0.00;;;1.90;99.90;;;;;;6153193;23;20431;-69
2021/03/07 08:21:04;;;;;;;0.00;0.00;;;1.70;99.90;;;;;;6153011;23;20383;-68
2021/03/07 08:23:30;;;;;;;0.00;0.00;;;1.70;99.90;;;;;;6154530;23;20379;-69
2021/03/07 08:25:58;;;;;;;0.00;0.00;;;1.70;99.90;;;;;;6155017;23;20383;-69
2021/03/07 08:28:41;;;;;;;0.00;0.00;;;1.80;99.90;;;;;;6154564;23;20908;-69
2021/03/07 08:31:21;;;;;;;0.00;0.00;;;1.90;99.90;;;;;;6153961;23;20398;-69
2021/03/07 08:33:48;;;;;;;0.00;0.00;;;2.20;99.90;;;;;;6154799;23;20390;-69
2021/03/07 08:36:16;;;;;;;0.00;0.00;;;2.40;99.90;;;;;;6154606;23;20375;-69
2021/03/07 08:39:16;;;;;;;0.00;0.00;;;2.60;99.90;;;;;;6154034;23;20884;-69
2021/03/07 08:42:00;;;;;;;0.00;0.00;;;2.70;99.90;;;;;;6154203;23;20449;-68
2021/03/07 08:44:26;;;;;;;0.00;0.00;;;2.90;99.90;;;;;;6150696;23;21266;-68
2021/03/07 08:46:52;;;;;;;0.00;0.00;;;2.60;99.90;;;;;;6154322;23;20371;-69
2021/03/07 08:49:21;;;;;;;0.00;0.00;;;2.70;99.90;;;;;;6153955;23;20379;-69
2021/03/07 08:51:52;;;;;;;0.00;0.00;;;2.80;99.90;;;;;;6153557;23;20883;-69
2021/03/07 08:54:20;;;;;;;0.00;0.00;;;3.00;99.90;;;;;;6155251;23;20395;-69
2021/03/07 08:56:48;;;;;;;0.00;0.00;;;3.10;99.90;;;;;;6154195;23;20434;-69
2021/03/07 08:59:14;;;;;;;0.00;0.00;;;3.10;99.90;;;;;;6154072;23;20389;-69
2021/03/07 09:01:40;;;;;;;0.00;0.00;;;3.20;99.90;;;;;;6153396;23;20375;-69
2021/03/07 09:04:08;;;;;;;0.00;0.00;;;3.30;99.90;;;;;;6154308;23;20379;-69
2021/03/07 09:06:37;;;;;;;0.00;0.00;;;3.30;99.90;;;;;;6153994;23;20386;-69
2021/03/07 09:09:08;;;;;;;0.00;0.00;;;3.30;99.90;;;;;;6153909;23;20383;-68
2021/03/07 09:11:36;;;;;;;0.00;0.00;;;3.10;99.90;;;;;;6153941;23;20437;-69
2021/03/07 09:14:03;;;;;;;0.00;0.00;;;3.00;99.90;;;;;;6154161;23;20434;-69
2021/03/07 09:16:40;;;;;;;0.00;0.00;;;3.10;99.90;;;;;;6167550;23;20686;-69
2021/03/07 09:19:25;;;;;;;0.00;0.00;;;3.30;99.90;;;;;;6183683;23;20400;-69
2021/03/07 09:22:21;;;;;;;0.00;0.00;;;3.40;99.90;;;;;;6183268;23;20749;-70
2021/03/07 09:25:04;;;;;;;0.00;0.00;;;3.60;99.90;;;;;;6183552;23;20380;-70
2021/03/07 09:27:32;;;;;;;0.00;0.00;;;3.90;99.90;;;;;;6181094;23;20381;-70
2021/03/07 09:30:12;;;;;;;0.00;0.00;;;4.10;99.90;;;;;;6182937;23;20382;-69
2021/03/07 09:32:40;;;;;;;0.00;0.00;;;4.10;99.90;;;;;;6182787;23;20725;-69
2021/03/07 09:35:22;;;;;;;0.00;0.00;;;4.20;99.90;;;;;;6183677;23;20377;-69
2021/03/07 09:38:01;;;;;;;0.00;0.00;;;4.20;99.90;;;;;;6179611;23;20420;-69
2021/03/07 09:40:29;;;;;;;0.00;0.00;;;4.30;99.90;;;;;;6183210;23;20720;-68
2021/03/07 09:42:59;;;;;;;0.00;0.00;;;4.50;99.90;;;;;;6182388;23;20377;-69
2021/03/07 09:45:27;;;;;;;0.00;0.00;;;4.60;99.90;;;;;;6182934;23;20864;-72
2021/03/07 09:47:54;;;;;;;0.00;0.00;;;4.80;99.90;;;;;;6181990;23;20444;-71
2021/03/07 09:50:27;;;;;;;0.00;0.00;;;4.80;99.90;;;;;;6182550;23;20385;-71
2021/03/07 09:53:27;;;;;;;0.00;0.00;;;4.80;99.90;;;;;;6182970;23;20394;-71
2021/03/07 09:55:53;;;;;;;0.00;0.00;;;4.80;99.90;;;;;;6180970;23;20398;-73
2021/03/07 10:01:43;;;;;;;0.00;0.00;;;5.20;99.90;;;;;;6182451;23;20397;-72
2021/03/07 10:04:30;;;;;;;0.00;0.00;;;5.40;99.90;;;;;;6183229;23;20712;-74
2021/03/07 10:06:57;;;;;;;0.00;0.00;;;5.20;99.90;;;;;;6182201;23;20448;-72
2021/03/07 10:09:24;;;;;;;0.00;0.00;;;5.50;99.90;;;;;;6182578;23;20388;-71
2021/03/07 10:12:02;;;;;;;0.00;0.00;;;5.80;99.90;;;;;;6182189;23;20417;-71
2021/03/07 10:14:39;;;;;;;0.00;0.00;;;5.90;99.90;;;;;;6182828;23;20753;-74
2021/03/07 10:17:06;;;;;;;0.00;0.00;;;5.70;99.90;;;;;;6182642;23;20477;-73
2021/03/07 10:19:37;;;;;;;0.00;0.00;;;5.80;99.90;;;;;;6182180;23;20393;-74
2021/03/07 10:25:54;;;;;;;0.00;0.00;;;5.80;99.90;;;;;;6182354;23;20390;-74
2021/03/07 10:32:01;;;;;;;0.00;0.00;;;4.90;99.90;;;;;;6180875;23;20453;-73
2021/03/07 10:34:32;;;;;;;0.00;0.00;;;5.40;99.90;;;;;;6182904;23;20390;-71
2021/03/07 10:36:58;;;;;;;0.00;0.00;;;5.30;99.90;;;;;;6182685;23;20815;-72
2021/03/07 10:39:31;;;;;;;0.00;0.00;;;5.30;99.90;;;;;;6182090;23;20405;-72
2021/03/07 10:42:10;;;;;;;0.00;0.00;;;5.30;99.90;;;;;;6181392;23;20469;-71
2021/03/07 10:44:40;;;;;;;0.00;0.00;;;5.10;99.90;;;;;;6182167;23;20460;-73
2021/03/07 10:47:20;;;;;;;0.00;0.00;;;5.20;99.90;;;;;;6182601;23;20401;-71
2021/03/07 10:49:48;;;;;;;0.00;0.00;;;5.00;99.90;;;;;;6190336;22;20416;-73
2021/03/07 10:52:14;;;;;;;0.00;0.00;;;5.10;99.90;;;;;;6211919;23;20396;-71
2021/03/07 10:54:40;;;;;;;0.00;0.00;;;5.40;99.90;;;;;;6212836;23;20376;-70
2021/03/07 10:57:09;;;;;;;0.00;0.00;;;5.30;99.90;;;;;;6212120;23;20426;-72
2021/03/07 10:59:36;;;;;;;0.00;0.00;;;5.50;99.90;;;;;;6212953;23;20443;-70
2021/03/07 11:02:05;;;;;;;0.00;0.00;;;5.50;99.90;;;;;;6212224;23;20377;-71
2021/03/07 11:04:31;;;;;;;0.00;0.00;;;5.80;99.90;;;;;;6213031;23;20388;-73
2021/03/07 11:06:57;;;;;;;0.00;0.00;;;5.60;99.90;;;;;;6213131;23;20390;-72
2021/03/07 11:09:24;;;;;;;0.00;0.00;;;5.50;99.90;;;;;;6212406;23;20422;-74
2021/03/07 11:11:50;;;;;;;0.00;0.00;;;5.70;99.90;;;;;;6211109;23;20388;-72
2021/03/07 11:14:18;;;;;;;0.00;0.00;;;5.70;99.90;;;;;;6212274;23;20680;-71
2021/03/07 11:19:36;;;;;;;0.00;0.00;;;6.00;99.90;;;;;;6211348;23;20467;-71
2021/03/07 11:22:04;;;;;;;0.00;0.00;;;6.10;99.90;;;;;;6210969;23;20392;-71
2021/03/07 11:24:35;;;;;;;0.00;0.00;;;6.40;99.90;;;;;;6180808;23;20387;-71
2021/03/07 11:30:56;;;;;;;0.00;0.00;;;5.20;99.90;;;;;;6210807;23;20459;-70
2021/03/07 11:33:22;;;;;;;0.00;0.00;;;5.50;99.90;;;;;;6211546;23;20445;-69
2021/03/07 11:35:48;;;;;;;0.00;0.00;;;5.80;99.90;;;;;;6212830;23;20376;-71
2021/03/07 11:38:20;;;;;;;0.00;0.00;;;5.80;99.90;;;;;;6212221;23;20684;-71
2021/03/07 11:40:50;;;;;;;0.00;0.00;;;6.10;99.90;;;;;;6213536;23;20840;-70
2021/03/07 11:43:31;;;;;;;0.00;0.00;;;7.30;99.90;;;;;;6212934;23;20382;-70
2021/03/07 11:45:58;;;;;;;0.00;0.00;;;6.40;99.90;;;;;;6213267;23;20408;-68
2021/03/07 11:48:56;;;;;;;0.00;0.00;;;6.30;99.90;;;;;;6213757;23;20383;-70
2021/03/07 11:51:33;;;;;;;0.00;0.00;;;5.70;99.90;;;;;;6212439;23;20392;-70
2021/03/07 11:53:59;;;;;;;0.00;0.00;;;5.90;99.90;;;;;;6212771;23;21053;-71
2021/03/07 11:56:25;;;;;;;0.00;0.00;;;5.70;99.90;;;;;;6212645;23;20375;-71
2021/03/07 11:58:51;;;;;;;0.00;0.00;;;5.80;99.90;;;;;;6214564;23;20390;-71
2021/03/07 12:01:18;;;;;;;0.00;0.00;;;5.80;99.90;;;;;;6214401;23;20371;-69
2021/03/07 12:03:44;;;;;;;0.00;0.00;;;6.00;99.90;;;;;;6213373;23;20445;-67
2021/03/07 12:06:11;;;;;;;0.00;0.00;;;5.90;99.90;;;;;;6214661;23;20376;-67
2021/03/07 12:08:37;;;;;;;0.00;0.00;;;5.70;99.90;;;;;;6214328;23;20383;-70
2021/03/07 12:11:03;;;;;;;0.00;0.00;;;5.60;99.90;;;;;;6215125;23;20387;-72
2021/03/07 12:13:30;;;;;;;0.00;0.00;;;5.50;99.90;;;;;;6213715;23;20498;-68
2021/03/07 12:15:56;;;;;;;0.00;0.00;;;5.60;99.90;;;;;;6213581;23;20406;-68
2021/03/07 12:18:23;;;;;;;0.00;0.00;;;5.70;99.90;;;;;;6213651;23;20710;-69
2021/03/07 12:20:50;;;;;;;0.00;0.00;;;5.70;99.90;;;;;;6213815;23;20391;-71
2021/03/07 12:23:16;;;;;;;0.00;0.00;;;5.60;99.90;;;;;;6213767;23;20525;-72
2021/03/07 12:25:43;;;;;;;0.00;0.00;;;5.80;99.90;;;;;;6216308;23;20375;-75
2021/03/07 12:28:09;;;;;;;0.00;0.00;;;6.00;99.90;;;;;;6215680;23;20382;-69
2021/03/07 12:30:35;;;;;;;0.00;0.00;;;6.10;99.90;;;;;;6214046;23;20367;-70
2021/03/07 12:33:01;;;;;;;0.00;0.00;;;5.90;99.90;;;;;;6213331;23;20383;-70
2021/03/07 12:35:30;;;;;;;0.00;0.00;;;6.00;99.90;;;;;;6215121;23;20376;-74
2021/03/07 12:37:57;;;;;;;0.00;0.00;;;5.90;99.90;;;;;;6212924;23;20418;-70
2021/03/07 12:40:23;;;;;;;0.00;0.00;;;6.10;99.90;;;;;;6213687;23;20707;-71
2021/03/07 12:42:54;;;;;;;0.00;0.00;;;8.00;99.90;;;;;;6213663;23;20680;-72
2021/03/07 12:45:27;;;;;;;0.00;0.00;;;6.60;99.90;;;;;;6213308;23;20387;-72
2021/03/07 12:47:54;;;;;;;0.00;0.00;;;6.60;99.90;;;;;;6214086;23;20380;-71
2021/03/07 12:50:20;;;;;;;0.00;0.00;;;6.40;99.90;;;;;;6213433;23;20699;-72
2021/03/07 12:52:53;;;;;;;0.00;0.00;;;6.40;99.90;;;;;;6212999;23;20702;-70
2021/03/07 12:58:08;;;;;;;0.00;0.00;;;6.10;99.90;;;;;;6212778;23;20449;-71
2021/03/07 13:00:36;;;;;;;0.00;0.00;;;6.30;99.90;;;;;;6213417;23;20387;-72
2021/03/07 13:03:05;;;;;;;0.00;0.00;;;6.20;99.90;;;;;;6212416;23;20387;-73
2021/03/07 13:05:35;;;;;;;0.00;0.00;;;6.00;99.90;;;;;;6213627;23;20427;-73
2021/03/07 13:08:04;;;;;;;0.00;0.00;;;6.10;99.90;;;;;;6213415;23;20718;-73
2021/03/07 13:10:30;;;;;;;0.00;0.00;;;6.30;99.90;;;;;;6213158;23;20727;-69
2021/03/07 13:12:57;;;;;;;0.00;0.00;;;6.50;99.90;;;;;;6214024;23;20386;-71
2021/03/07 13:15:23;;;;;;;0.00;0.00;;;6.50;99.90;;;;;;6213769;23;20371;-70
2021/03/07 13:17:53;;;;;;;0.00;0.00;;;6.60;99.90;;;;;;6213803;23;20707;-71
2021/03/07 13:20:22;;;;;;;0.00;0.00;;;6.50;99.90;;;;;;6212956;23;20396;-72
2021/03/07 13:22:54;;;;;;;0.00;0.00;;;6.50;99.90;;;;;;6212247;23;20396;-72